Time;durP1;ratioP1;P1;durP2;ratioP2;P2;SDS_P1;SDS_P2;PMS_P1;PMS_P2;Temp;Humidity;BMP_temperature;BMP_pressure;BME280_temperature;BME280_humidity;BME280_pressure;Samples;Min_cycle;Max_cycle;Signal;HPM_P1;HPM_P2
2023/03/23 00:00:54;;;;;;;6.78;3.13;;;11.50;99.90;;;;;;5085262;28;20048;-46
2023/03/23 00:03:21;;;;;;;7.65;3.45;;;11.50;99.90;;;;;;5081452;28;20051;-47
2023/03/23 00:05:50;;;;;;;6.72;3.10;;;11.50;99.90;;;;;;5081088;28;20047;-50
2023/03/23 00:08:22;;;;;;;6.05;2.90;;;11.50;99.90;;;;;;5077084;28;20160;-48
2023/03/23 00:10:56;;;;;;;7.97;3.35;;;11.50;99.90;;;;;;5084360;28;20079;-48
2023/03/23 00:13:26;;;;;;;6.82;2.47;;;11.50;99.90;;;;;;5079244;28;20560;-50
2023/03/23 00:15:52;;;;;;;11.95;2.60;;;11.50;99.90;;;;;;5082485;28;20512;-50
2023/03/23 00:18:21;;;;;;;7.22;3.30;;;11.50;99.90;;;;;;5079749;28;20554;-48
2023/03/23 00:20:52;;;;;;;6.32;2.28;;;11.50;99.90;;;;;;5079354;28;20193;-48
2023/03/23 00:23:19;;;;;;;5.03;2.63;;;11.50;99.90;;;;;;5085032;28;20056;-49
2023/03/23 00:25:46;;;;;;;4.35;2.63;;;11.60;99.90;;;;;;5083356;28;20056;-51
2023/03/23 00:28:12;;;;;;;6.72;2.25;;;11.50;99.90;;;;;;5066033;28;20495;-51
2023/03/23 00:30:38;;;;;;;5.40;2.90;;;11.50;99.90;;;;;;5079398;28;20052;-47
2023/03/23 00:33:05;;;;;;;7.53;2.72;;;11.50;99.90;;;;;;5085496;28;20562;-47
2023/03/23 00:35:30;;;;;;;6.38;1.88;;;11.60;99.90;;;;;;5077637;28;20051;-48
2023/03/23 00:37:58;;;;;;;5.13;2.17;;;11.60;99.90;;;;;;5080566;28;20044;-48
2023/03/23 00:40:24;;;;;;;5.57;2.50;;;11.60;99.90;;;;;;5082431;28;20063;-49
2023/03/23 00:42:49;;;;;;;5.72;2.42;;;11.60;99.90;;;;;;5085489;28;20558;-48
2023/03/23 00:45:16;;;;;;;6.38;2.45;;;11.60;99.90;;;;;;5080886;28;20115;-49
2023/03/23 00:47:46;;;;;;;6.47;2.33;;;11.60;99.90;;;;;;5063505;28;20056;-47
2023/03/23 00:50:13;;;;;;;3.65;2.00;;;11.60;99.90;;;;;;5077114;28;20117;-50
2023/03/23 00:52:40;;;;;;;4.63;2.35;;;11.60;99.90;;;;;;5077100;28;20055;-46
2023/03/23 00:55:07;;;;;;;6.05;2.08;;;11.50;99.90;;;;;;5078844;28;20090;-48
2023/03/23 00:57:32;;;;;;;4.18;1.95;;;11.60;99.90;;;;;;5059455;28;20110;-47
2023/03/23 00:59:58;;;;;;;4.45;2.20;;;11.60;99.90;;;;;;5081475;28;20059;-50
2023/03/23 01:02:26;;;;;;;6.25;2.17;;;11.60;99.90;;;;;;5077806;28;20121;-47
2023/03/23 01:04:52;;;;;;;4.43;2.53;;;11.60;99.90;;;;;;5075644;28;20044;-48
2023/03/23 01:07:22;;;;;;;6.65;1.85;;;11.60;99.90;;;;;;5081117;28;20527;-49
2023/03/23 01:09:48;;;;;;;5.80;2.00;;;11.60;99.90;;;;;;5080718;28;20051;-43
2023/03/23 01:12:14;;;;;;;4.30;1.80;;;11.60;99.90;;;;;;5081418;28;20052;-48
2023/03/23 01:14:41;;;;;;;3.47;2.10;;;11.60;99.90;;;;;;5072095;28;20501;-44
2023/03/23 01:17:07;;;;;;;4.68;2.03;;;11.60;99.90;;;;;;5079501;28;20079;-47
2023/03/23 01:19:32;;;;;;;4.20;1.83;;;11.50;99.90;;;;;;5075061;28;20457;-47
2023/03/23 01:21:58;;;;;;;4.47;1.95;;;11.50;99.90;;;;;;5080149;28;20063;-48
2023/03/23 01:24:24;;;;;;;5.82;1.52;;;11.60;99.90;;;;;;5080797;28;20152;-46
2023/03/23 01:26:50;;;;;;;5.38;2.00;;;11.50;99.90;;;;;;5081764;28;20051;-49
2023/03/23 01:29:15;;;;;;;5.15;2.15;;;11.60;99.90;;;;;;5076578;28;20052;-49
2023/03/23 01:31:42;;;;;;;5.50;2.20;;;11.60;99.90;;;;;;5083451;28;20185;-54
2023/03/23 01:34:10;;;;;;;4.22;2.30;;;11.60;99.90;;;;;;5077926;28;20063;-49
2023/03/23 01:36:36;;;;;;;6.65;1.88;;;11.70;99.90;;;;;;5076355;28;20185;-48
2023/03/23 01:39:03;;;;;;;6.68;2.65;;;11.70;99.90;;;;;;5076960;28;20479;-49
2023/03/23 01:41:30;;;;;;;5.65;1.83;;;11.70;99.90;;;;;;5079773;28;20056;-43
2023/03/23 01:44:17;;;;;;;6.20;2.05;;;11.70;99.90;;;;;;5081605;28;20489;-48
2023/03/23 01:46:44;;;;;;;5.68;1.70;;;11.60;99.90;;;;;;5076330;28;20506;-44
2023/03/23 01:49:25;;;;;;;4.45;1.80;;;11.60;99.90;;;;;;5079315;28;20060;-47
2023/03/23 01:51:55;;;;;;;7.28;2.00;;;11.60;99.90;;;;;;5070515;28;20498;-47
2023/03/23 01:54:23;;;;;;;6.38;1.95;;;11.60;99.90;;;;;;5061646;28;20505;-44
2023/03/23 01:57:06;;;;;;;5.13;1.65;;;11.60;99.90;;;;;;5081789;28;20056;-45
2023/03/23 01:59:34;;;;;;;5.43;1.70;;;11.60;99.90;;;;;;5078125;28;20506;-46
2023/03/23 02:02:01;;;;;;;3.42;1.42;;;11.50;99.90;;;;;;5079387;28;20059;-48
2023/03/23 02:04:29;;;;;;;4.15;1.25;;;11.50;99.90;;;;;;5077611;28;20044;-41
2023/03/23 02:06:57;;;;;;;6.57;2.08;;;11.50;99.90;;;;;;5076365;28;20062;-48
2023/03/23 02:09:25;;;;;;;5.43;1.50;;;11.50;99.90;;;;;;5074908;28;20101;-45
2023/03/23 02:11:52;;;;;;;3.75;1.60;;;11.50;99.90;;;;;;5057373;28;20047;-48
2023/03/23 02:14:19;;;;;;;4.22;1.33;;;11.50;99.90;;;;;;5082379;28;20501;-49
2023/03/23 02:17:07;;;;;;;4.00;1.70;;;11.50;99.90;;;;;;5058749;28;20063;-46
2023/03/23 02:19:33;;;;;;;5.40;1.55;;;11.60;99.90;;;;;;5077306;28;20052;-47
2023/03/23 02:22:14;;;;;;;5.57;1.58;;;11.60;99.90;;;;;;5081063;28;20066;-48
2023/03/23 02:24:58;;;;;;;6.00;1.70;;;11.60;99.90;;;;;;5077169;28;20056;-47
2023/03/23 02:28:02;;;;;;;3.42;1.40;;;11.60;99.90;;;;;;5078820;28;20476;-50
2023/03/23 02:30:31;;;;;;;5.25;1.20;;;11.50;99.90;;;;;;5074776;28;20104;-48
2023/03/23 02:33:17;;;;;;;4.88;1.50;;;11.60;99.90;;;;;;5077666;28;22378;-48
2023/03/23 02:35:51;;;;;;;5.78;1.48;;;11.60;99.90;;;;;;5073030;28;20497;-50
2023/03/23 02:38:22;;;;;;;3.20;0.95;;;11.60;99.90;;;;;;5070885;28;20092;-48
2023/03/23 02:40:50;;;;;;;7.43;1.75;;;11.60;99.90;;;;;;5072539;28;20060;-48
2023/03/23 02:43:19;;;;;;;3.60;1.10;;;11.60;99.90;;;;;;5076853;28;20054;-49
2023/03/23 02:45:46;;;;;;;4.57;1.00;;;11.50;99.90;;;;;;5075063;28;20044;-46
2023/03/23 02:48:15;;;;;;;3.25;1.00;;;11.50;99.90;;;;;;5077661;28;20055;-49
2023/03/23 02:50:44;;;;;;;2.45;0.90;;;11.50;99.90;;;;;;5075568;28;20493;-49
2023/03/23 02:53:13;;;;;;;2.97;1.23;;;11.60;99.90;;;;;;5080075;28;20486;-47
2023/03/23 02:55:42;;;;;;;5.05;1.90;;;11.60;99.90;;;;;;5077754;28;20048;-49
2023/03/23 02:58:09;;;;;;;3.88;1.40;;;11.60;99.90;;;;;;5077340;28;20393;-48
2023/03/23 03:00:36;;;;;;;2.80;1.20;;;11.50;99.90;;;;;;5078256;28;20556;-49
2023/03/23 03:03:05;;;;;;;4.25;1.15;;;11.50;99.90;;;;;;5080703;28;20046;-43
2023/03/23 03:06:00;;;;;;;3.85;1.30;;;11.50;99.90;;;;;;5078274;28;20040;-46
2023/03/23 03:08:44;;;;;;;6.55;1.08;;;11.50;99.90;;;;;;5077496;28;20048;-45
2023/03/23 03:11:13;;;;;;;3.70;1.25;;;11.50;99.90;;;;;;5077414;28;20056;-44
2023/03/23 03:13:55;;;;;;;5.50;1.45;;;11.50;99.90;;;;;;5080961;28;20048;-48
2023/03/23 03:16:43;;;;;;;2.70;1.10;;;11.50;99.90;;;;;;5076921;28;21600;-49
2023/03/23 03:19:16;;;;;;;5.07;1.23;;;11.50;99.90;;;;;;5074845;28;20082;-45
2023/03/23 03:21:46;;;;;;;2.92;1.20;;;11.50;99.90;;;;;;5075034;28;20390;-49
2023/03/23 03:24:15;;;;;;;2.28;1.08;;;11.40;99.90;;;;;;5077596;28;20057;-47
2023/03/23 03:26:47;;;;;;;2.78;1.10;;;11.40;99.90;;;;;;5079217;28;20401;-46
2023/03/23 03:29:17;;;;;;;3.30;1.42;;;11.40;99.90;;;;;;5075848;28;20875;-48
2023/03/23 03:31:47;;;;;;;2.15;1.15;;;11.40;99.90;;;;;;5082678;28;20087;-49
2023/03/23 03:34:17;;;;;;;3.78;1.55;;;11.40;99.90;;;;;;5078102;28;20051;-46
2023/03/23 03:36:45;;;;;;;3.33;1.40;;;11.40;99.90;;;;;;5079105;28;20060;-47
2023/03/23 03:39:12;;;;;;;4.72;1.50;;;11.50;99.90;;;;;;5080208;28;20047;-48
2023/03/23 03:41:38;;;;;;;5.82;1.60;;;11.50;99.90;;;;;;5080583;28;20509;-50
2023/03/23 03:44:06;;;;;;;3.35;1.40;;;11.50;99.90;;;;;;5081605;28;20048;-48
2023/03/23 03:46:33;;;;;;;5.78;1.92;;;11.50;99.90;;;;;;5080654;28;20056;-49
2023/03/23 03:48:59;;;;;;;4.22;1.55;;;11.60;99.90;;;;;;5077099;28;20540;-50
2023/03/23 03:51:28;;;;;;;5.72;1.90;;;11.60;99.90;;;;;;5080038;28;20082;-48
2023/03/23 03:53:54;;;;;;;3.72;1.75;;;11.60;99.90;;;;;;5082646;28;20505;-48
2023/03/23 03:56:21;;;;;;;5.07;1.48;;;11.60;99.90;;;;;;5081931;28;20055;-48
2023/03/23 03:58:49;;;;;;;3.55;1.40;;;11.70;99.90;;;;;;5079873;28;20131;-45
2023/03/23 04:01:15;;;;;;;4.25;1.42;;;11.60;99.90;;;;;;5080988;28;20091;-46
2023/03/23 04:03:41;;;;;;;4.65;2.03;;;11.60;99.90;;;;;;5082976;28;20413;-57
2023/03/23 04:06:08;;;;;;;5.82;2.30;;;11.70;99.90;;;;;;5083813;28;20072;-47
2023/03/23 04:08:35;;;;;;;3.88;2.10;;;11.70;99.90;;;;;;5077601;28;20058;-48
2023/03/23 04:11:01;;;;;;;5.35;1.55;;;11.70;99.90;;;;;;5076465;28;20052;-48
2023/03/23 04:13:27;;;;;;;4.95;1.77;;;11.70;99.90;;;;;;5079351;28;20051;-45
2023/03/23 04:15:52;;;;;;;4.88;1.70;;;11.70;99.90;;;;;;5081081;28;20318;-47
2023/03/23 04:18:19;;;;;;;5.45;1.90;;;11.60;99.90;;;;;;5079234;28;20074;-46
2023/03/23 04:20:48;;;;;;;5.88;2.03;;;11.60;99.90;;;;;;5079091;28;20063;-48
2023/03/23 04:23:19;;;;;;;3.78;1.98;;;11.60;99.90;;;;;;5081194;28;20555;-48
2023/03/23 04:25:46;;;;;;;4.85;1.50;;;11.60;99.90;;;;;;5058424;28;20064;-48
2023/03/23 04:28:13;;;;;;;5.55;1.77;;;11.60;99.90;;;;;;5078251;28;20062;-49
2023/03/23 04:30:42;;;;;;;3.40;1.63;;;11.60;99.90;;;;;;5083793;28;20047;-46
2023/03/23 04:33:14;;;;;;;4.03;1.75;;;11.60;99.90;;;;;;5076325;28;20060;-49
2023/03/23 04:35:41;;;;;;;4.53;1.67;;;11.50;99.90;;;;;;5084627;28;20563;-47
2023/03/23 04:38:07;;;;;;;5.88;2.53;;;11.50;99.90;;;;;;5079175;28;20150;-49
2023/03/23 04:40:36;;;;;;;5.47;2.20;;;11.40;99.90;;;;;;5060479;28;20053;-48
2023/03/23 04:43:05;;;;;;;6.55;2.05;;;11.40;99.90;;;;;;5081878;28;20515;-49
2023/03/23 04:45:37;;;;;;;6.95;2.42;;;11.30;99.90;;;;;;5082833;28;20117;-46
2023/03/23 04:48:04;;;;;;;5.60;2.13;;;11.20;99.90;;;;;;5079671;28;20393;-49
2023/03/23 04:50:32;;;;;;;7.70;2.35;;;11.00;99.90;;;;;;5079959;28;20458;-46
2023/03/23 04:53:06;;;;;;;4.97;1.80;;;10.80;99.90;;;;;;5080846;28;20036;-48
2023/03/23 04:55:36;;;;;;;4.40;1.40;;;10.60;99.90;;;;;;5080884;28;20051;-50
2023/03/23 04:58:06;;;;;;;3.53;1.30;;;10.50;99.90;;;;;;5083079;28;20132;-49
2023/03/23 05:00:35;;;;;;;4.55;1.30;;;10.50;99.90;;;;;;5077557;28;20051;-45
2023/03/23 05:03:01;;;;;;;6.95;1.52;;;10.50;99.90;;;;;;5077293;28;20056;-49
2023/03/23 05:05:30;;;;;;;6.50;1.80;;;10.50;99.90;;;;;;5075420;28;20454;-47
2023/03/23 05:07:56;;;;;;;5.00;1.17;;;10.50;99.90;;;;;;5077102;28;20402;-45
2023/03/23 05:10:22;;;;;;;5.28;1.00;;;10.50;99.90;;;;;;5078336;28;20048;-48
2023/03/23 05:12:48;;;;;;;9.50;1.27;;;10.70;99.90;;;;;;5075157;28;20643;-47
2023/03/23 05:15:16;;;;;;;4.03;1.00;;;10.70;99.90;;;;;;5081749;28;20482;-48
2023/03/23 05:17:43;;;;;;;6.20;1.23;;;10.70;99.90;;;;;;5080248;28;20048;-47
2023/03/23 05:20:14;;;;;;;5.25;1.00;;;10.70;99.90;;;;;;5076348;28;20505;-47
2023/03/23 05:22:41;;;;;;;7.47;1.30;;;10.60;99.90;;;;;;5076478;28;20123;-47
2023/03/23 05:25:08;;;;;;;5.68;1.17;;;10.60;99.90;;;;;;5080633;28;20478;-48
2023/03/23 05:27:35;;;;;;;3.63;1.23;;;10.70;99.90;;;;;;5080709;28;20052;-48
2023/03/23 05:30:01;;;;;;;7.88;1.67;;;10.70;99.90;;;;;;5076264;28;20040;-47
2023/03/23 05:32:30;;;;;;;5.78;1.13;;;10.70;99.90;;;;;;5071921;28;20154;-43
2023/03/23 05:35:00;;;;;;;3.50;1.15;;;10.70;99.90;;;;;;5076439;28;20044;-48
2023/03/23 05:37:28;;;;;;;4.40;0.98;;;10.70;99.90;;;;;;5081869;28;20048;-49
2023/03/23 05:39:55;;;;;;;2.72;0.70;;;10.70;99.90;;;;;;5073649;28;20056;-48
2023/03/23 05:42:23;;;;;;;6.70;0.90;;;10.70;99.90;;;;;;5077667;28;20055;-44
2023/03/23 05:44:50;;;;;;;6.35;1.50;;;10.60;99.90;;;;;;5077296;28;20066;-48
2023/03/23 05:47:16;;;;;;;4.88;0.77;;;10.60;99.90;;;;;;5062421;28;20055;-47
2023/03/23 05:49:42;;;;;;;2.97;0.57;;;10.50;99.90;;;;;;5058771;28;20501;-41
2023/03/23 05:52:08;;;;;;;4.70;1.17;;;10.50;99.90;;;;;;5075031;28;20157;-43
2023/03/23 05:54:34;;;;;;;2.60;0.82;;;10.40;99.90;;;;;;5071784;28;20516;-48
2023/03/23 05:56:59;;;;;;;4.15;1.00;;;10.40;99.90;;;;;;5078567;28;20416;-47
2023/03/23 05:59:25;;;;;;;6.25;1.30;;;10.40;99.90;;;;;;5077065;28;20051;-47
2023/03/23 06:01:53;;;;;;;5.65;1.00;;;10.40;99.90;;;;;;5079845;28;20116;-43
2023/03/23 06:04:19;;;;;;;4.00;0.88;;;10.40;99.90;;;;;;5078226;28;20055;-46
2023/03/23 06:06:45;;;;;;;2.78;0.73;;;10.30;99.90;;;;;;5061765;28;20056;-47
2023/03/23 06:09:11;;;;;;;5.60;1.40;;;10.30;99.90;;;;;;5072327;28;20060;-44
2023/03/23 06:11:37;;;;;;;4.95;0.98;;;10.30;99.90;;;;;;5076219;28;20056;-46
2023/03/23 06:14:03;;;;;;;5.90;0.95;;;10.30;99.90;;;;;;5080459;28;20460;-48
2023/03/23 06:16:29;;;;;;;4.60;1.00;;;10.30;99.90;;;;;;5080882;28;20052;-45
2023/03/23 06:18:56;;;;;;;5.35;1.30;;;10.30;99.90;;;;;;5077422;28;20561;-47
2023/03/23 06:21:22;;;;;;;5.45;1.30;;;10.30;99.90;;;;;;5080138;28;20061;-43
2023/03/23 06:23:48;;;;;;;6.60;1.27;;;10.30;99.90;;;;;;5077856;28;20485;-47
2023/03/23 06:26:16;;;;;;;8.02;1.98;;;10.30;99.90;;;;;;5080307;28;20082;-47
2023/03/23 06:28:42;;;;;;;9.95;1.35;;;10.40;99.90;;;;;;5080536;28;20075;-48
2023/03/23 06:31:08;;;;;;;9.40;1.65;;;10.40;99.90;;;;;;5082322;28;20060;-44
2023/03/23 06:33:37;;;;;;;11.82;3.83;;;10.40;99.90;;;;;;5077620;28;20051;-47
2023/03/23 06:36:04;;;;;;;6.35;1.63;;;10.40;99.90;;;;;;5076690;28;20052;-48
2023/03/23 06:38:31;;;;;;;8.13;1.40;;;10.50;99.90;;;;;;5077446;28;20056;-44
2023/03/23 06:40:57;;;;;;;10.77;1.88;;;10.50;99.90;;;;;;5076893;28;20471;-49
2023/03/23 06:43:24;;;;;;;7.70;1.90;;;10.50;99.90;;;;;;5069569;28;20169;-43
2023/03/23 06:45:50;;;;;;;8.95;1.63;;;10.60;99.90;;;;;;5059387;28;20063;-45
2023/03/23 06:48:17;;;;;;;10.30;1.70;;;10.60;99.90;;;;;;5077381;28;20138;-43
2023/03/23 06:50:46;;;;;;;10.68;2.30;;;10.60;99.90;;;;;;5078037;28;20086;-44
2023/03/23 06:53:13;;;;;;;10.18;2.33;;;10.60;99.90;;;;;;5077224;28;20044;-43
2023/03/23 06:55:38;;;;;;;13.05;3.05;;;10.60;99.90;;;;;;5076339;28;20040;-46
2023/03/23 06:58:08;;;;;;;7.82;2.10;;;10.70;99.90;;;;;;5080186;28;20059;-46
2023/03/23 07:00:34;;;;;;;9.27;1.90;;;10.70;99.90;;;;;;5072462;28;20056;-43
2023/03/23 07:03:01;;;;;;;8.60;2.50;;;10.70;99.90;;;;;;5073067;28;20109;-46
2023/03/23 07:05:27;;;;;;;5.65;1.50;;;10.80;99.90;;;;;;5082373;28;20486;-47
2023/03/23 07:07:53;;;;;;;8.25;1.77;;;10.80;99.90;;;;;;5070725;28;20050;-51
2023/03/23 07:10:19;;;;;;;7.95;1.92;;;10.80;99.90;;;;;;5070204;28;20076;-44
2023/03/23 07:12:45;;;;;;;12.88;1.98;;;10.90;99.90;;;;;;5054623;28;20044;-46
2023/03/23 07:15:12;;;;;;;7.18;1.83;;;10.90;99.90;;;;;;5075507;28;20112;-44
2023/03/23 07:17:39;;;;;;;12.77;1.85;;;10.90;99.90;;;;;;5072720;28;20708;-43
2023/03/23 07:20:06;;;;;;;6.90;1.35;;;10.90;99.90;;;;;;5079746;28;20052;-43
2023/03/23 07:22:32;;;;;;;8.25;2.15;;;11.00;99.90;;;;;;5076924;28;20044;-45
2023/03/23 07:24:58;;;;;;;9.02;1.50;;;11.20;99.90;;;;;;5076487;28;20052;-47
2023/03/23 07:27:24;;;;;;;8.70;1.60;;;11.30;99.90;;;;;;5078955;28;20048;-45
2023/03/23 07:29:50;;;;;;;9.95;2.08;;;11.30;99.90;;;;;;5079412;28;20075;-44
2023/03/23 07:32:16;;;;;;;8.88;1.80;;;11.30;99.90;;;;;;5079543;28;20091;-47
2023/03/23 07:34:42;;;;;;;10.60;2.20;;;11.30;99.90;;;;;;5076698;28;20127;-45
2023/03/23 07:37:08;;;;;;;10.02;1.75;;;11.30;99.90;;;;;;5081837;28;20052;-46
2023/03/23 07:39:34;;;;;;;9.30;1.88;;;11.40;99.90;;;;;;5079678;28;20648;-44
2023/03/23 07:42:01;;;;;;;10.30;1.60;;;11.40;99.90;;;;;;5076896;28;20056;-43
2023/03/23 07:44:26;;;;;;;8.57;1.90;;;11.40;99.90;;;;;;5075479;28;20087;-47
2023/03/23 07:46:52;;;;;;;8.77;1.95;;;11.40;99.90;;;;;;5074134;28;20143;-43
2023/03/23 07:49:18;;;;;;;10.68;2.33;;;11.40;99.90;;;;;;5074263;28;20044;-43
2023/03/23 07:51:45;;;;;;;12.30;3.22;;;11.40;99.90;;;;;;5074579;28;20074;-42
2023/03/23 07:54:11;;;;;;;9.25;2.10;;;11.40;99.90;;;;;;5076046;28;20575;-43
2023/03/23 07:56:39;;;;;;;10.95;2.38;;;11.50;99.90;;;;;;5073693;28;20048;-46
2023/03/23 07:59:05;;;;;;;11.63;2.05;;;11.40;99.90;;;;;;5071722;28;20051;-43
2023/03/23 08:01:32;;;;;;;11.13;2.88;;;11.50;99.90;;;;;;5079152;28;20497;-43
2023/03/23 08:03:59;;;;;;;12.73;2.10;;;11.50;99.90;;;;;;5069998;28;20228;-43
2023/03/23 08:06:25;;;;;;;10.45;2.03;;;11.40;99.90;;;;;;5072475;28;20489;-48
2023/03/23 08:08:51;;;;;;;10.05;2.50;;;11.50;99.90;;;;;;5072333;28;20062;-44
2023/03/23 08:11:18;;;;;;;11.15;1.95;;;11.50;99.90;;;;;;5075572;28;20052;-43
2023/03/23 08:13:44;;;;;;;12.88;2.78;;;11.50;99.90;;;;;;5070825;28;20467;-42
2023/03/23 08:16:10;;;;;;;15.25;2.80;;;11.50;99.90;;;;;;5078488;28;20068;-42
2023/03/23 08:18:37;;;;;;;9.25;2.40;;;11.50;99.90;;;;;;5076830;28;20508;-42
2023/03/23 08:21:09;;;;;;;14.15;2.72;;;11.50;99.90;;;;;;5059743;28;20489;-42
2023/03/23 08:23:36;;;;;;;13.05;2.85;;;11.50;99.90;;;;;;5079654;28;20054;-46
2023/03/23 08:26:04;;;;;;;6.90;2.45;;;11.50;99.90;;;;;;5083544;28;20497;-42
2023/03/23 08:28:30;;;;;;;13.98;2.42;;;11.50;99.90;;;;;;5079834;28;20509;-44
2023/03/23 08:30:56;;;;;;;12.70;2.50;;;11.50;99.90;;;;;;5079241;28;20040;-42
2023/03/23 08:33:22;;;;;;;9.85;2.03;;;11.60;99.90;;;;;;5083516;28;20473;-43
2023/03/23 08:35:58;;;;;;;8.25;1.65;;;11.60;99.90;;;;;;5082605;28;20040;-42
2023/03/23 08:38:24;;;;;;;11.68;2.15;;;11.70;99.90;;;;;;5078801;28;20052;-43
2023/03/23 08:40:50;;;;;;;16.23;2.55;;;11.80;99.90;;;;;;5081201;28;20055;-43
2023/03/23 08:43:17;;;;;;;11.10;2.00;;;11.80;99.90;;;;;;5086091;28;20052;-45
2023/03/23 08:45:43;;;;;;;10.52;2.20;;;11.90;99.90;;;;;;5076054;28;20037;-45
2023/03/23 08:48:09;;;;;;;12.63;2.55;;;11.80;99.90;;;;;;5078853;28;20490;-43
2023/03/23 08:50:35;;;;;;;7.45;1.67;;;11.80;99.90;;;;;;5078008;28;20048;-36
2023/03/23 08:53:01;;;;;;;9.63;1.90;;;11.80;99.90;;;;;;5080545;28;20436;-36
2023/03/23 08:55:28;;;;;;;6.40;1.83;;;11.80;99.90;;;;;;5081416;28;20519;-36
2023/03/23 08:57:54;;;;;;;9.23;1.98;;;11.80;99.90;;;;;;5080819;28;20078;-36
2023/03/23 09:00:23;;;;;;;8.23;2.60;;;11.90;99.90;;;;;;5082929;28;20072;-36
2023/03/23 09:02:52;;;;;;;10.00;2.00;;;12.00;99.90;;;;;;5081738;28;20480;-38
2023/03/23 09:05:21;;;;;;;11.57;2.72;;;12.20;99.90;;;;;;5080645;28;20413;-36
2023/03/23 09:07:49;;;;;;;11.25;1.80;;;12.20;99.90;;;;;;5078483;28;20048;-37
2023/03/23 09:10:16;;;;;;;8.32;1.67;;;12.20;99.90;;;;;;5077905;28;20060;-37
2023/03/23 09:12:43;;;;;;;10.93;2.25;;;12.20;99.90;;;;;;5083047;28;20185;-36
2023/03/23 09:15:12;;;;;;;10.88;2.22;;;12.10;99.90;;;;;;5077541;28;20441;-37
2023/03/23 09:17:45;;;;;;;9.25;2.30;;;12.10;99.90;;;;;;5081880;28;20067;-37
2023/03/23 09:20:13;;;;;;;8.13;2.70;;;12.00;99.90;;;;;;5080367;28;20486;-36
2023/03/23 09:22:50;;;;;;;11.10;2.45;;;12.00;99.90;;;;;;5078162;28;20063;-36
2023/03/23 09:25:21;;;;;;;9.65;2.38;;;12.20;99.90;;;;;;5072906;28;20059;-36
2023/03/23 09:27:56;;;;;;;8.27;1.60;;;12.30;99.90;;;;;;5074830;28;20552;-36
2023/03/23 09:30:23;;;;;;;13.48;2.42;;;12.40;99.90;;;;;;5077666;28;20060;-37
2023/03/23 09:32:49;;;;;;;9.73;1.98;;;12.60;99.90;;;;;;5074184;28;20052;-36
2023/03/23 09:35:16;;;;;;;7.53;1.73;;;12.80;99.90;;;;;;5070975;28;20078;-36
2023/03/23 09:37:46;;;;;;;8.38;1.45;;;13.10;99.90;;;;;;5073211;28;20052;-37
2023/03/23 09:40:19;;;;;;;8.95;1.80;;;13.30;99.90;;;;;;5075201;28;20543;-37
2023/03/23 09:42:51;;;;;;;7.22;2.00;;;13.50;99.90;;;;;;5079750;28;20591;-36
2023/03/23 09:45:31;;;;;;;;;;;13.60;99.90;;;;;;5069597;28;20424;-36
2023/03/23 09:48:18;;;;;;;7.38;1.42;;;13.70;99.90;;;;;;5074604;28;20001;-36
2023/03/23 09:50:46;;;;;;;6.78;1.30;;;13.70;99.90;;;;;;5070817;28;20063;-37
2023/03/23 09:53:35;;;;;;;7.07;1.20;;;13.60;99.90;;;;;;5079577;28;20096;-36
2023/03/23 09:56:02;;;;;;;7.00;1.40;;;13.70;99.90;;;;;;5076236;28;20059;-36
2023/03/23 09:58:51;;;;;;;7.60;1.52;;;13.70;99.90;;;;;;5077470;28;20058;-36
2023/03/23 10:01:20;;;;;;;10.32;1.50;;;13.70;99.90;;;;;;5080009;28;20501;-36
2023/03/23 10:03:47;;;;;;;5.70;1.20;;;13.80;99.90;;;;;;5081011;28;20557;-36
2023/03/23 10:06:17;;;;;;;4.88;1.33;;;13.70;99.90;;;;;;5084646;28;21569;-36
2023/03/23 10:09:00;;;;;;;4.95;1.85;;;13.60;99.90;;;;;;5079811;28;20055;-36
2023/03/23 10:11:47;;;;;;;7.25;1.33;;;13.70;99.90;;;;;;5081798;28;20490;-35
2023/03/23 10:14:33;;;;;;;4.75;1.10;;;13.80;99.90;;;;;;5080742;28;20497;-36
2023/03/23 10:17:24;;;;;;;6.78;1.60;;;13.90;99.90;;;;;;5079216;28;20094;-37
2023/03/23 10:20:17;;;;;;;5.35;1.05;;;13.90;99.90;;;;;;5048065;28;20055;-38
2023/03/23 10:23:01;;;;;;;;;;;13.80;99.90;;;;;;5060471;28;20473;-36
2023/03/23 10:25:31;;;;;;;4.75;1.10;;;13.70;97.60;;;;;;5079717;28;19923;-38
2023/03/23 10:28:24;;;;;;;6.70;0.95;;;13.50;98.10;;;;;;5080351;28;20119;-38
2023/03/23 10:30:56;;;;;;;7.35;2.20;;;13.30;98.30;;;;;;5075397;28;20040;-38
2023/03/23 10:33:25;;;;;;;4.97;1.00;;;13.20;99.10;;;;;;5079441;28;20417;-38
2023/03/23 10:36:24;;;;;;;12.18;1.35;;;13.30;99.90;;;;;;5079505;28;20493;-38
2023/03/23 10:39:21;;;;;;;10.27;1.65;;;13.40;99.60;;;;;;5074711;28;20490;-38
2023/03/23 10:41:47;;;;;;;7.38;1.00;;;13.50;98.90;;;;;;5073201;28;20040;-39
2023/03/23 10:44:21;;;;;;;7.30;1.13;;;13.70;99.20;;;;;;5081034;28;20519;-38
2023/03/23 10:46:56;;;;;;;6.32;1.35;;;14.00;99.90;;;;;;5081296;28;20115;-38
2023/03/23 10:49:33;;;;;;;11.00;1.45;;;14.20;99.50;;;;;;5080486;28;20113;-38
2023/03/23 10:52:34;;;;;;;5.97;1.20;;;14.20;97.70;;;;;;5080071;28;20132;-38
2023/03/23 10:55:16;;;;;;;5.80;0.95;;;14.00;95.30;;;;;;5080432;28;20052;-38
2023/03/23 10:57:45;;;;;;;7.45;1.58;;;13.90;97.80;;;;;;5082502;28;20044;-37
2023/03/23 11:00:14;;;;;;;9.50;1.50;;;14.00;98.30;;;;;;5078089;28;20181;-37
2023/03/23 11:03:02;;;;;;;13.75;1.75;;;14.10;98.60;;;;;;5076269;28;20068;-36
2023/03/23 11:05:42;;;;;;;6.88;1.48;;;14.10;98.90;;;;;;5038378;28;20183;-37
2023/03/23 11:08:16;;;;;;;5.32;1.02;;;14.10;98.70;;;;;;5072432;28;20052;-37
2023/03/23 11:10:53;;;;;;;8.48;1.48;;;14.10;98.20;;;;;;5076205;28;20502;-37
2023/03/23 11:13:21;;;;;;;7.22;1.48;;;14.30;98.90;;;;;;5078944;28;20497;-37
2023/03/23 11:15:49;;;;;;;7.93;1.33;;;14.40;97.80;;;;;;5072702;28;20647;-38
2023/03/23 11:18:23;;;;;;;4.35;1.10;;;14.50;96.40;;;;;;5077332;28;20294;-37
2023/03/23 11:20:54;;;;;;;5.68;1.00;;;14.40;93.70;;;;;;5082860;28;20060;-37
2023/03/23 11:23:24;;;;;;;8.13;1.00;;;14.50;94.10;;;;;;5077166;28;20055;-37
2023/03/23 11:25:57;;;;;;;7.68;1.45;;;14.50;92.30;;;;;;5074550;28;20139;-37
2023/03/23 11:28:31;;;;;;;8.98;1.27;;;14.60;92.40;;;;;;5067651;28;20048;-38
2023/03/23 11:31:00;;;;;;;7.57;0.93;;;14.80;92.70;;;;;;5072950;28;20048;-36
2023/03/23 11:33:30;;;;;;;8.05;1.20;;;15.00;92.60;;;;;;5066354;28;20082;-38
2023/03/23 11:35:56;;;;;;;6.05;1.60;;;15.20;92.40;;;;;;5066576;28;20063;-37
2023/03/23 11:38:26;;;;;;;4.63;1.25;;;15.40;90.60;;;;;;5065681;28;20501;-37
2023/03/23 11:40:52;;;;;;;6.00;1.00;;;15.50;88.50;;;;;;5065562;28;20052;-37
2023/03/23 11:43:24;;;;;;;7.53;1.33;;;15.40;86.00;;;;;;5067363;28;20052;-37
2023/03/23 11:46:10;;;;;;;9.93;1.50;;;15.50;89.40;;;;;;5069412;28;20088;-37
2023/03/23 11:48:49;;;;;;;9.15;1.42;;;15.60;88.30;;;;;;5071413;28;20062;-37
2023/03/23 11:51:24;;;;;;;4.28;0.90;;;15.50;89.20;;;;;;5078560;28;20064;-37
2023/03/23 11:54:07;;;;;;;8.32;1.48;;;15.20;89.60;;;;;;5075146;28;20048;-37
2023/03/23 11:56:36;;;;;;;8.15;1.13;;;15.00;88.40;;;;;;5079297;28;20109;-37
2023/03/23 11:59:04;;;;;;;5.57;1.17;;;14.80;90.90;;;;;;5086008;28;20560;-38
2023/03/23 12:01:48;;;;;;;6.60;1.05;;;14.60;90.80;;;;;;5080520;28;20083;-37
2023/03/23 12:05:10;;;;;;;9.98;1.65;;;14.60;91.70;;;;;;5077111;28;20052;-38
2023/03/23 12:08:06;;;;;;;7.65;1.35;;;14.60;91.80;;;;;;5040345;28;20516;-37
2023/03/23 12:10:58;;;;;;;11.48;1.42;;;14.50;93.20;;;;;;5079314;28;20076;-37
2023/03/23 12:14:00;;;;;;;11.97;1.40;;;14.60;92.00;;;;;;5086008;28;20083;-37
2023/03/23 12:16:34;;;;;;;6.47;1.33;;;14.50;91.10;;;;;;5084665;28;20297;-37
2023/03/23 12:19:00;;;;;;;5.60;1.25;;;14.50;92.20;;;;;;5084988;28;20062;-37
2023/03/23 12:21:50;;;;;;;4.72;1.10;;;14.40;92.00;;;;;;5088299;28;20929;-37
2023/03/23 12:24:19;;;;;;;8.57;1.70;;;14.30;91.10;;;;;;5085274;28;20051;-38
2023/03/23 12:27:01;;;;;;;6.63;1.33;;;14.30;92.50;;;;;;5082720;28;20547;-37
2023/03/23 12:29:39;;;;;;;9.50;0.80;;;14.20;92.60;;;;;;5081992;28;20044;-38
2023/03/23 12:32:24;;;;;;;5.53;1.10;;;14.10;92.10;;;;;;5085818;28;20513;-38
2023/03/23 12:35:11;;;;;;;6.60;1.50;;;14.10;93.60;;;;;;5080781;28;20052;-37
2023/03/23 12:37:40;;;;;;;7.07;1.40;;;14.20;94.40;;;;;;5080495;28;20056;-38
2023/03/23 12:40:25;;;;;;;9.82;1.17;;;14.60;94.20;;;;;;5087598;28;20166;-38
2023/03/23 12:42:58;;;;;;;7.18;1.20;;;15.20;92.80;;;;;;5076501;28;20052;-38
2023/03/23 12:45:24;;;;;;;7.35;1.50;;;15.80;86.40;;;;;;5076180;28;20062;-38
2023/03/23 12:48:05;;;;;;;6.10;1.33;;;16.10;80.50;;;;;;5080793;28;20052;-38
2023/03/23 12:50:39;;;;;;;6.47;1.13;;;16.30;80.90;;;;;;5078034;28;20536;-37
2023/03/23 12:53:24;;;;;;;5.63;0.88;;;16.70;70.90;;;;;;5085939;28;20052;-38
2023/03/23 12:55:52;;;;;;;8.32;2.22;;;17.00;76.20;;;;;;5082713;28;20043;-38
2023/03/23 12:58:26;;;;;;;10.65;1.52;;;17.10;74.90;;;;;;5083517;28;20044;-38
2023/03/23 13:01:09;;;;;;;13.63;1.63;;;17.40;73.00;;;;;;5082153;28;20054;-38
2023/03/23 13:03:42;;;;;;;6.57;0.98;;;17.50;72.60;;;;;;5081795;28;20174;-38